sensor_id;sensor_type;location;lat;lon;timestamp;pressure;altitude;pressure_sealevel;temperature;humidity
35226;BME280;21813;49.686;21.766;2023-01-25T02:11:22;100183.81;;;-0.55;100.00
35226;BME280;21813;49.686;21.766;2023-01-25T02:13:50;100175.28;;;-0.52;100.00
35226;BME280;21813;49.686;21.766;2023-01-25T02:16:23;100164.19;;;-0.54;100.00
35226;BME280;21813;49.686;21.766;2023-01-25T02:18:53;100163.38;;;-0.58;100.00
35226;BME280;21813;49.686;21.766;2023-01-25T02:21:21;100154.84;;;-0.57;100.00
35226;BME280;21813;49.686;21.766;2023-01-25T02:23:56;100159.06;;;-0.54;100.00
35226;BME280;21813;49.686;21.766;2023-01-25T03:08:30;100142.88;;;-0.59;100.00
35226;BME280;21813;49.686;21.766;2023-01-25T03:11:01;100150.56;;;-0.56;100.00
35226;BME280;21813;49.686;21.766;2023-01-25T03:24:32;100136.91;;;-0.60;100.00
35226;BME280;21813;49.686;21.766;2023-01-25T04:14:44;100101.09;;;-0.64;100.00
35226;BME280;21813;49.686;21.766;2023-01-25T04:17:11;100107.06;;;-0.64;100.00
35226;BME280;21813;49.686;21.766;2023-01-25T04:19:37;100101.94;;;-0.64;100.00
35226;BME280;21813;49.686;21.766;2023-01-25T04:26:49;100101.94;;;-0.64;100.00
35226;BME280;21813;49.686;21.766;2023-01-25T05:27:42;100073.69;;;-0.49;100.00
35226;BME280;21813;49.686;21.766;2023-01-25T05:50:15;100077.09;;;-0.47;100.00
35226;BME280;21813;49.686;21.766;2023-01-25T06:53:12;100054.81;;;-0.40;100.00
35226;BME280;21813;49.686;21.766;2023-01-25T06:55:36;100055.63;;;-0.33;100.00
35226;BME280;21813;49.686;21.766;2023-01-25T06:58:04;100051.38;;;-0.36;100.00
35226;BME280;21813;49.686;21.766;2023-01-25T07:00:30;100055.59;;;-0.32;100.00
35226;BME280;21813;49.686;21.766;2023-01-25T07:02:56;100058.16;;;-0.32;100.00
35226;BME280;21813;49.686;21.766;2023-01-25T07:05:34;100046.25;;;-0.33;100.00
35226;BME280;21813;49.686;21.766;2023-01-25T07:08:09;100050.44;;;-0.27;100.00
35226;BME280;21813;49.686;21.766;2023-01-25T07:11:12;100039.31;;;-0.26;100.00
35226;BME280;21813;49.686;21.766;2023-01-25T07:13:41;100055.53;;;-0.24;100.00
35226;BME280;21813;49.686;21.766;2023-01-25T07:16:11;100049.63;;;-0.31;100.00
35226;BME280;21813;49.686;21.766;2023-01-25T07:19:27;100038.50;;;-0.31;100.00
35226;BME280;21813;49.686;21.766;2023-01-25T07:21:53;100047.06;;;-0.29;100.00
35226;BME280;21813;49.686;21.766;2023-01-25T07:24:21;100042.75;;;-0.27;100.00
35226;BME280;21813;49.686;21.766;2023-01-25T07:26:51;100035.94;;;-0.28;100.00
35226;BME280;21813;49.686;21.766;2023-01-25T07:29:18;100033.34;;;-0.25;100.00
35226;BME280;21813;49.686;21.766;2023-01-25T07:31:44;100035.88;;;-0.22;100.00
35226;BME280;21813;49.686;21.766;2023-01-25T07:38:30;100027.31;;;-0.20;100.00
35226;BME280;21813;49.686;21.766;2023-01-25T07:43:36;100043.41;;;-0.07;100.00
35226;BME280;21813;49.686;21.766;2023-01-25T07:53:00;100032.25;;;0.00;100.00
35226;BME280;21813;49.686;21.766;2023-01-25T07:55:27;100036.53;;;-0.02;100.00
35226;BME280;21813;49.686;21.766;2023-01-25T07:57:55;100033.06;;;0.02;100.00
35226;BME280;21813;49.686;21.766;2023-01-25T08:00:22;100029.69;;;-0.02;100.00
35226;BME280;21813;49.686;21.766;2023-01-25T08:02:51;100036.47;;;0.01;100.00
35226;BME280;21813;49.686;21.766;2023-01-25T08:05:19;100044.97;;;0.06;100.00
35226;BME280;21813;49.686;21.766;2023-01-25T08:07:51;100033.03;;;0.05;100.00
35226;BME280;21813;49.686;21.766;2023-01-25T08:10:49;100041.56;;;0.07;100.00
35226;BME280;21813;49.686;21.766;2023-01-25T08:13:41;100031.34;;;0.04;100.00
35226;BME280;21813;49.686;21.766;2023-01-25T08:16:24;100033.00;;;0.08;100.00
35226;BME280;21813;49.686;21.766;2023-01-25T08:18:55;100034.72;;;0.09;100.00
35226;BME280;21813;49.686;21.766;2023-01-25T08:21:22;100022.75;;;0.07;100.00
35226;BME280;21813;49.686;21.766;2023-01-25T08:23:50;100019.34;;;0.09;100.00
35226;BME280;21813;49.686;21.766;2023-01-25T08:26:16;100026.13;;;0.13;100.00
35226;BME280;21813;49.686;21.766;2023-01-25T08:41:16;100008.81;;;0.30;100.00
35226;BME280;21813;49.686;21.766;2023-01-25T08:52:08;99995.13;;;0.31;100.00
35226;BME280;21813;49.686;21.766;2023-01-25T08:54:39;100003.50;;;0.42;100.00
35226;BME280;21813;49.686;21.766;2023-01-25T08:57:09;100007.78;;;0.43;100.00
35226;BME280;21813;49.686;21.766;2023-01-25T09:00:03;100009.50;;;0.43;100.00
35226;BME280;21813;49.686;21.766;2023-01-25T09:02:33;99996.72;;;0.41;100.00
35226;BME280;21813;49.686;21.766;2023-01-25T09:08:48;100000.03;;;0.47;100.00
35226;BME280;21813;49.686;21.766;2023-01-25T09:11:39;99995.81;;;0.46;100.00
35226;BME280;21813;49.686;21.766;2023-01-25T09:14:58;99994.88;;;0.50;100.00
35226;BME280;21813;49.686;21.766;2023-01-25T09:17:57;99991.47;;;0.51;100.00
35226;BME280;21813;49.686;21.766;2023-01-25T09:20:23;99988.91;;;0.51;100.00
35226;BME280;21813;49.686;21.766;2023-01-25T09:26:08;99981.19;;;0.51;100.00
35226;BME280;21813;49.686;21.766;2023-01-25T09:36:26;99979.41;;;0.56;100.00
35226;BME280;21813;49.686;21.766;2023-01-25T09:49:44;99971.69;;;0.56;100.00
35226;BME280;21813;49.686;21.766;2023-01-25T09:55:12;99959.06;;;0.43;100.00
35226;BME280;21813;49.686;21.766;2023-01-25T09:57:40;99952.31;;;0.36;100.00
35226;BME280;21813;49.686;21.766;2023-01-25T10:00:20;99953.97;;;0.40;100.00
35226;BME280;21813;49.686;21.766;2023-01-25T10:05:43;99940.31;;;0.38;100.00
35226;BME280;21813;49.686;21.766;2023-01-25T10:08:37;99935.97;;;0.43;100.00
35226;BME280;21813;49.686;21.766;2023-01-25T10:11:15;99920.59;;;0.42;100.00
35226;BME280;21813;49.686;21.766;2023-01-25T10:13:45;99918.81;;;0.49;100.00
35226;BME280;21813;49.686;21.766;2023-01-25T10:22:45;99911.03;;;0.55;100.00
35226;BME280;21813;49.686;21.766;2023-01-25T10:25:34;99896.50;;;0.55;100.00
35226;BME280;21813;49.686;21.766;2023-01-25T10:31:45;99880.31;;;0.50;100.00
35226;BME280;21813;49.686;21.766;2023-01-25T10:34:46;99895.66;;;0.52;100.00
35226;BME280;21813;49.686;21.766;2023-01-25T10:37:26;99883.75;;;0.51;100.00
35226;BME280;21813;49.686;21.766;2023-01-25T10:40:08;99875.97;;;0.55;100.00
35226;BME280;21813;49.686;21.766;2023-01-25T10:46:22;99867.44;;;0.53;100.00
35226;BME280;21813;49.686;21.766;2023-01-25T10:52:30;99863.06;;;0.60;100.00
35226;BME280;21813;49.686;21.766;2023-01-25T11:02:44;99863.06;;;0.60;100.00
35226;BME280;21813;49.686;21.766;2023-01-25T11:14:17;99846.00;;;0.57;100.00
35226;BME280;21813;49.686;21.766;2023-01-25T11:16:45;99846.78;;;0.62;100.00
35226;BME280;21813;49.686;21.766;2023-01-25T11:19:38;99840.78;;;0.62;100.00
35226;BME280;21813;49.686;21.766;2023-01-25T11:22:24;99838.13;;;0.69;100.00
35226;BME280;21813;49.686;21.766;2023-01-25T11:25:23;99827.94;;;0.65;100.00
35226;BME280;21813;49.686;21.766;2023-01-25T11:27:49;99830.50;;;0.65;100.00
35226;BME280;21813;49.686;21.766;2023-01-25T11:30:17;99833.94;;;0.64;100.00
35226;BME280;21813;49.686;21.766;2023-01-25T11:32:49;99832.16;;;0.66;100.00
35226;BME280;21813;49.686;21.766;2023-01-25T11:42:56;99814.25;;;0.64;100.00
35226;BME280;21813;49.686;21.766;2023-01-25T12:02:41;99788.19;;;0.87;100.00
35226;BME280;21813;49.686;21.766;2023-01-25T12:14:27;99769.28;;;0.91;100.00
35226;BME280;21813;49.686;21.766;2023-01-25T12:17:07;99761.59;;;0.91;100.00
35226;BME280;21813;49.686;21.766;2023-01-25T12:22:51;99753.22;;;0.80;100.00
35226;BME280;21813;49.686;21.766;2023-01-25T12:28:45;99758.25;;;0.86;100.00
35226;BME280;21813;49.686;21.766;2023-01-25T12:32:08;99753.16;;;0.84;100.00
35226;BME280;21813;49.686;21.766;2023-01-25T12:37:59;99747.34;;;0.75;100.00
35226;BME280;21813;49.686;21.766;2023-01-25T12:52:37;99728.69;;;0.67;100.00
35226;BME280;21813;49.686;21.766;2023-01-25T12:55:12;99724.41;;;0.66;100.00
35226;BME280;21813;49.686;21.766;2023-01-25T13:06:08;99727.06;;;0.63;100.00
35226;BME280;21813;49.686;21.766;2023-01-25T13:37:18;99679.50;;;0.45;100.00
35226;BME280;21813;49.686;21.766;2023-01-25T13:44:51;99673.72;;;0.34;100.00
35226;BME280;21813;49.686;21.766;2023-01-25T13:47:42;99666.16;;;0.26;100.00
35226;BME280;21813;49.686;21.766;2023-01-25T13:50:34;99671.22;;;0.29;100.00
35226;BME280;21813;49.686;21.766;2023-01-25T13:53:23;99657.56;;;0.29;100.00
35226;BME280;21813;49.686;21.766;2023-01-25T14:03:00;99659.34;;;0.25;100.00
35226;BME280;21813;49.686;21.766;2023-01-25T14:28:52;99643.88;;;0.30;100.00
35226;BME280;21813;49.686;21.766;2023-01-25T14:34:36;99641.31;;;0.28;100.00
35226;BME280;21813;49.686;21.766;2023-01-25T14:37:32;99642.31;;;0.21;100.00
35226;BME280;21813;49.686;21.766;2023-01-25T15:03:04;99621.97;;;0.12;100.00
35226;BME280;21813;49.686;21.766;2023-01-25T15:10:55;99611.03;;;0.03;100.00
35226;BME280;21813;49.686;21.766;2023-01-25T15:17:45;99615.41;;;-0.04;100.00
35226;BME280;21813;49.686;21.766;2023-01-25T15:20:38;99607.84;;;-0.10;100.00
35226;BME280;21813;49.686;21.766;2023-01-25T15:23:23;99617.19;;;-0.06;100.00
35226;BME280;21813;49.686;21.766;2023-01-25T15:25:58;99606.97;;;-0.09;100.00
35226;BME280;21813;49.686;21.766;2023-01-25T15:28:28;99603.59;;;-0.10;100.00
35226;BME280;21813;49.686;21.766;2023-01-25T15:30:56;99608.63;;;-0.07;100.00
35226;BME280;21813;49.686;21.766;2023-01-25T15:33:28;99597.56;;;-0.09;100.00
35226;BME280;21813;49.686;21.766;2023-01-25T15:35:55;99608.66;;;-0.08;100.00
35226;BME280;21813;49.686;21.766;2023-01-25T15:38:21;99598.47;;;-0.13;100.00
35226;BME280;21813;49.686;21.766;2023-01-25T15:40:51;99599.28;;;-0.09;100.00
35226;BME280;21813;49.686;21.766;2023-01-25T15:43:18;99599.34;;;-0.12;100.00
35226;BME280;21813;49.686;21.766;2023-01-25T15:45:49;99604.41;;;-0.09;100.00
35226;BME280;21813;49.686;21.766;2023-01-25T15:48:41;99600.25;;;-0.15;100.00
35226;BME280;21813;49.686;21.766;2023-01-25T15:51:11;99593.44;;;-0.16;100.00
35226;BME280;21813;49.686;21.766;2023-01-25T15:53:46;99590.88;;;-0.17;100.00
35226;BME280;21813;49.686;21.766;2023-01-25T15:56:16;99587.44;;;-0.16;100.00
35226;BME280;21813;49.686;21.766;2023-01-25T15:58:45;99591.75;;;-0.18;100.00
35226;BME280;21813;49.686;21.766;2023-01-25T16:01:15;99590.00;;;-0.16;100.00
35226;BME280;21813;49.686;21.766;2023-01-25T16:03:44;99581.50;;;-0.18;100.00
35226;BME280;21813;49.686;21.766;2023-01-25T16:09:26;99566.28;;;-0.27;100.00
35226;BME280;21813;49.686;21.766;2023-01-25T16:12:23;99561.16;;;-0.27;100.00
35226;BME280;21813;49.686;21.766;2023-01-25T16:15:00;99563.84;;;-0.33;100.00
35226;BME280;21813;49.686;21.766;2023-01-25T16:17:33;99567.28;;;-0.34;100.00
35226;BME280;21813;49.686;21.766;2023-01-25T16:19:59;99567.28;;;-0.36;100.00
35226;BME280;21813;49.686;21.766;2023-01-25T16:22:26;99561.41;;;-0.41;100.00
35226;BME280;21813;49.686;21.766;2023-01-25T16:24:51;99552.06;;;-0.43;100.00
35226;BME280;21813;49.686;21.766;2023-01-25T16:27:20;99559.75;;;-0.43;100.00
35226;BME280;21813;49.686;21.766;2023-01-25T16:29:52;99559.72;;;-0.42;100.00
35226;BME280;21813;49.686;21.766;2023-01-25T16:32:37;99555.50;;;-0.45;100.00
35226;BME280;21813;49.686;21.766;2023-01-25T16:35:06;99562.31;;;-0.43;100.00
35226;BME280;21813;49.686;21.766;2023-01-25T16:37:55;99556.44;;;-0.50;100.00
35226;BME280;21813;49.686;21.766;2023-01-25T16:40:32;99553.84;;;-0.49;100.00
35226;BME280;21813;49.686;21.766;2023-01-25T16:43:18;99561.47;;;-0.44;100.00
35226;BME280;21813;49.686;21.766;2023-01-25T16:45:46;99555.50;;;-0.45;100.00
35226;BME280;21813;49.686;21.766;2023-01-25T16:48:41;99551.19;;;-0.42;100.00
35226;BME280;21813;49.686;21.766;2023-01-25T16:54:12;99551.28;;;-0.49;100.00
35226;BME280;21813;49.686;21.766;2023-01-25T17:03:46;99548.75;;;-0.50;100.00
35226;BME280;21813;49.686;21.766;2023-01-25T17:06:38;99544.44;;;-0.47;100.00
35226;BME280;21813;49.686;21.766;2023-01-25T17:12:31;99529.94;;;-0.48;100.00
35226;BME280;21813;49.686;21.766;2023-01-25T17:14:57;99529.09;;;-0.48;100.00
35226;BME280;21813;49.686;21.766;2023-01-25T17:17:25;99522.34;;;-0.52;100.00
35226;BME280;21813;49.686;21.766;2023-01-25T17:19:52;99529.94;;;-0.48;100.00
35226;BME280;21813;49.686;21.766;2023-01-25T17:22:19;99512.94;;;-0.52;100.00
35226;BME280;21813;49.686;21.766;2023-01-25T17:24:44;99518.00;;;-0.49;100.00
35226;BME280;21813;49.686;21.766;2023-01-25T17:27:10;99515.47;;;-0.50;100.00
35226;BME280;21813;49.686;21.766;2023-01-25T17:29:36;99514.53;;;-0.45;100.00
35226;BME280;21813;49.686;21.766;2023-01-25T17:32:05;99511.16;;;-0.47;100.00
35226;BME280;21813;49.686;21.766;2023-01-25T17:34:31;99506.03;;;-0.47;100.00
35226;BME280;21813;49.686;21.766;2023-01-25T17:36:57;99514.44;;;-0.41;100.00
35226;BME280;21813;49.686;21.766;2023-01-25T17:39:23;99511.97;;;-0.45;100.00
35226;BME280;21813;49.686;21.766;2023-01-25T17:42:07;99495.81;;;-0.50;100.00
35226;BME280;21813;49.686;21.766;2023-01-25T17:44:48;99494.13;;;-0.51;100.00
35226;BME280;21813;49.686;21.766;2023-01-25T17:47:21;99491.56;;;-0.49;100.00
35226;BME280;21813;49.686;21.766;2023-01-25T17:49:46;99488.97;;;-0.48;100.00
35226;BME280;21813;49.686;21.766;2023-01-25T17:52:14;99491.56;;;-0.49;100.00
35226;BME280;21813;49.686;21.766;2023-01-25T17:54:40;99487.28;;;-0.49;100.00
35226;BME280;21813;49.686;21.766;2023-01-25T17:57:06;99489.84;;;-0.49;100.00
35226;BME280;21813;49.686;21.766;2023-01-25T17:59:32;99477.09;;;-0.52;100.00
35226;BME280;21813;49.686;21.766;2023-01-25T18:01:58;99477.06;;;-0.50;100.00
35226;BME280;21813;49.686;21.766;2023-01-25T18:04:24;99474.53;;;-0.52;100.00
35226;BME280;21813;49.686;21.766;2023-01-25T18:06:51;99481.31;;;-0.51;100.00
35226;BME280;21813;49.686;21.766;2023-01-25T18:09:16;99476.22;;;-0.51;100.00
35226;BME280;21813;49.686;21.766;2023-01-25T18:11:43;99477.13;;;-0.53;100.00
35226;BME280;21813;49.686;21.766;2023-01-25T18:14:24;99466.03;;;-0.55;100.00
35226;BME280;21813;49.686;21.766;2023-01-25T18:17:31;99468.66;;;-0.57;100.00
35226;BME280;21813;49.686;21.766;2023-01-25T18:20:03;99464.41;;;-0.59;100.00
35226;BME280;21813;49.686;21.766;2023-01-25T18:22:35;99466.97;;;-0.58;100.00
35226;BME280;21813;49.686;21.766;2023-01-25T18:25:06;99461.97;;;-0.65;100.00
35226;BME280;21813;49.686;21.766;2023-01-25T18:27:42;99467.09;;;-0.65;100.00
35226;BME280;21813;49.686;21.766;2023-01-25T18:32:55;99458.66;;;-0.72;100.00
35226;BME280;21813;49.686;21.766;2023-01-25T18:35:20;99456.91;;;-0.68;100.00
35226;BME280;21813;49.686;21.766;2023-01-25T18:37:51;99459.53;;;-0.71;100.00
35226;BME280;21813;49.686;21.766;2023-01-25T18:40:17;99455.34;;;-0.77;100.00
35226;BME280;21813;49.686;21.766;2023-01-25T18:43:15;99453.63;;;-0.75;100.00
35226;BME280;21813;49.686;21.766;2023-01-25T18:46:08;99450.28;;;-0.80;100.00
35226;BME280;21813;49.686;21.766;2023-01-25T18:48:37;99449.38;;;-0.77;100.00
35226;BME280;21813;49.686;21.766;2023-01-25T18:51:15;99440.09;;;-0.83;100.00
35226;BME280;21813;49.686;21.766;2023-01-25T18:54:29;99440.06;;;-0.80;100.00
35226;BME280;21813;49.686;21.766;2023-01-25T19:00:37;99423.00;;;-0.81;100.00
35226;BME280;21813;49.686;21.766;2023-01-25T19:03:24;99428.91;;;-0.77;100.00
35226;BME280;21813;49.686;21.766;2023-01-25T19:10:13;99422.94;;;-0.78;100.00
35226;BME280;21813;49.686;21.766;2023-01-25T19:13:23;99418.72;;;-0.80;100.00
35226;BME280;21813;49.686;21.766;2023-01-25T19:16:01;99416.25;;;-0.85;100.00
35226;BME280;21813;49.686;21.766;2023-01-25T19:18:36;99428.19;;;-0.84;100.00
35226;BME280;21813;49.686;21.766;2023-01-25T19:21:07;99421.31;;;-0.82;100.00
35226;BME280;21813;49.686;21.766;2023-01-25T19:23:36;99419.59;;;-0.83;100.00
35226;BME280;21813;49.686;21.766;2023-01-25T19:26:04;99416.16;;;-0.80;100.00
35226;BME280;21813;49.686;21.766;2023-01-25T19:28:56;99404.25;;;-0.83;100.00
35226;BME280;21813;49.686;21.766;2023-01-25T19:32:05;99407.53;;;-0.75;100.00
35226;BME280;21813;49.686;21.766;2023-01-25T19:34:53;99398.19;;;-0.77;100.00
35226;BME280;21813;49.686;21.766;2023-01-25T19:37:25;99386.25;;;-0.78;100.00
35226;BME280;21813;49.686;21.766;2023-01-25T19:40:02;99396.41;;;-0.72;100.00
35226;BME280;21813;49.686;21.766;2023-01-25T19:42:27;99382.88;;;-0.79;100.00
35226;BME280;21813;49.686;21.766;2023-01-25T19:45:05;99393.91;;;-0.77;100.00
35226;BME280;21813;49.686;21.766;2023-01-25T19:53:52;99380.34;;;-0.82;100.00
35226;BME280;21813;49.686;21.766;2023-01-25T19:57:02;99387.16;;;-0.81;100.00
35226;BME280;21813;49.686;21.766;2023-01-25T19:59:31;99397.25;;;-0.72;100.00
35226;BME280;21813;49.686;21.766;2023-01-25T20:01:57;99388.81;;;-0.77;100.00
35226;BME280;21813;49.686;21.766;2023-01-25T20:04:23;99387.00;;;-0.72;100.00
35226;BME280;21813;49.686;21.766;2023-01-25T20:06:55;99389.59;;;-0.73;100.00
35226;BME280;21813;49.686;21.766;2023-01-25T20:09:21;99383.69;;;-0.77;100.00
35226;BME280;21813;49.686;21.766;2023-01-25T20:11:56;99392.19;;;-0.75;100.00
35226;BME280;21813;49.686;21.766;2023-01-25T20:14:22;99392.22;;;-0.78;100.00
35226;BME280;21813;49.686;21.766;2023-01-25T20:20:30;99382.97;;;-0.85;100.00
35226;BME280;21813;49.686;21.766;2023-01-25T20:22:58;99371.88;;;-0.84;100.00
35226;BME280;21813;49.686;21.766;2023-01-25T20:25:33;99377.84;;;-0.83;100.00
35226;BME280;21813;49.686;21.766;2023-01-25T20:28:51;99371.88;;;-0.84;100.00
35226;BME280;21813;49.686;21.766;2023-01-25T20:31:54;99366.75;;;-0.84;100.00
35226;BME280;21813;49.686;21.766;2023-01-25T20:34:23;99358.19;;;-0.83;100.00
35226;BME280;21813;49.686;21.766;2023-01-25T20:36:52;99363.31;;;-0.83;100.00
35226;BME280;21813;49.686;21.766;2023-01-25T20:39:21;99361.66;;;-0.84;100.00
35226;BME280;21813;49.686;21.766;2023-01-25T20:41:48;99361.66;;;-0.84;100.00
35226;BME280;21813;49.686;21.766;2023-01-25T20:44:20;99361.66;;;-0.84;100.00
35226;BME280;21813;49.686;21.766;2023-01-25T20:46:45;99365.88;;;-0.83;100.00
35226;BME280;21813;49.686;21.766;2023-01-25T20:49:16;99366.75;;;-0.84;100.00
35226;BME280;21813;49.686;21.766;2023-01-25T20:51:42;99358.19;;;-0.83;100.00
35226;BME280;21813;49.686;21.766;2023-01-25T20:54:10;99354.91;;;-0.88;100.00
35226;BME280;21813;49.686;21.766;2023-01-25T20:56:36;99359.09;;;-0.84;100.00
35226;BME280;21813;49.686;21.766;2023-01-25T20:59:05;99347.13;;;-0.83;100.00
35226;BME280;21813;49.686;21.766;2023-01-25T21:01:32;99342.81;;;-0.80;100.00
35226;BME280;21813;49.686;21.766;2023-01-25T21:04:06;99341.09;;;-0.81;100.00
35226;BME280;21813;49.686;21.766;2023-01-25T21:06:44;99344.44;;;-0.77;100.00
35226;BME280;21813;49.686;21.766;2023-01-25T21:09:12;99345.38;;;-0.80;100.00
35226;BME280;21813;49.686;21.766;2023-01-25T21:11:40;99346.25;;;-0.82;100.00
35226;BME280;21813;49.686;21.766;2023-01-25T21:14:08;99342.13;;;-0.90;100.00
35226;BME280;21813;49.686;21.766;2023-01-25T21:16:34;99348.09;;;-0.89;100.00
35226;BME280;21813;49.686;21.766;2023-01-25T21:19:04;99336.22;;;-0.93;100.00
35226;BME280;21813;49.686;21.766;2023-01-25T21:21:33;99337.88;;;-0.92;100.00
35226;BME280;21813;49.686;21.766;2023-01-25T21:24:01;99327.72;;;-0.95;100.00
35226;BME280;21813;49.686;21.766;2023-01-25T21:26:31;99323.53;;;-0.98;100.00
35226;BME280;21813;49.686;21.766;2023-01-25T21:29:02;99330.34;;;-0.98;100.00
35226;BME280;21813;49.686;21.766;2023-01-25T21:31:54;99346.50;;;-0.96;100.00
35226;BME280;21813;49.686;21.766;2023-01-25T21:34:24;99333.78;;;-0.99;100.00
35226;BME280;21813;49.686;21.766;2023-01-25T21:36:50;99343.84;;;-0.92;100.00
35226;BME280;21813;49.686;21.766;2023-01-25T21:39:20;99329.47;;;-0.97;100.00
35226;BME280;21813;49.686;21.766;2023-01-25T21:41:45;99324.31;;;-0.94;100.00
35226;BME280;21813;49.686;21.766;2023-01-25T21:44:13;99334.53;;;-0.94;100.00
35226;BME280;21813;49.686;21.766;2023-01-25T21:46:58;99325.22;;;-0.98;100.00
35226;BME280;21813;49.686;21.766;2023-01-25T21:49:25;99327.75;;;-0.97;100.00
35226;BME280;21813;49.686;21.766;2023-01-25T21:52:09;99329.47;;;-0.97;100.00
35226;BME280;21813;49.686;21.766;2023-01-25T21:54:43;99319.25;;;-0.97;100.00
35226;BME280;21813;49.686;21.766;2023-01-25T21:57:09;99317.50;;;-0.97;100.00
35226;BME280;21813;49.686;21.766;2023-01-25T21:59:37;99312.44;;;-0.98;100.00
35226;BME280;21813;49.686;21.766;2023-01-25T22:02:07;99302.22;;;-0.98;100.00
35226;BME280;21813;49.686;21.766;2023-01-25T22:04:35;99306.47;;;-0.99;100.00
35226;BME280;21813;49.686;21.766;2023-01-25T22:07:03;99292.84;;;-1.01;100.00
35226;BME280;21813;49.686;21.766;2023-01-25T22:09:33;99294.47;;;-0.97;100.00
35226;BME280;21813;49.686;21.766;2023-01-25T22:12:01;99295.31;;;-0.96;100.00
35226;BME280;21813;49.686;21.766;2023-01-25T22:14:42;99297.03;;;-0.97;100.00
35226;BME280;21813;49.686;21.766;2023-01-25T22:17:22;99291.97;;;-0.98;100.00
35226;BME280;21813;49.686;21.766;2023-01-25T22:19:50;99295.31;;;-0.96;100.00
35226;BME280;21813;49.686;21.766;2023-01-25T22:22:17;99281.81;;;-1.03;100.00
35226;BME280;21813;49.686;21.766;2023-01-25T22:24:43;99284.47;;;-1.07;100.00
35226;BME280;21813;49.686;21.766;2023-01-25T22:29:41;99281.91;;;-1.07;100.00
35226;BME280;21813;49.686;21.766;2023-01-25T22:32:08;99288.69;;;-1.06;100.00
35226;BME280;21813;49.686;21.766;2023-01-25T22:34:34;99270.06;;;-1.11;100.00
35226;BME280;21813;49.686;21.766;2023-01-25T22:37:05;99280.22;;;-1.08;100.00
35226;BME280;21813;49.686;21.766;2023-01-25T22:39:31;99274.31;;;-1.12;100.00
35226;BME280;21813;49.686;21.766;2023-01-25T22:41:57;99262.41;;;-1.13;100.00
35226;BME280;21813;49.686;21.766;2023-01-25T22:44:22;99253.88;;;-1.13;100.00
35226;BME280;21813;49.686;21.766;2023-01-25T22:46:49;99239.47;;;-1.17;100.00
35226;BME280;21813;49.686;21.766;2023-01-25T22:49:16;99244.50;;;-1.14;100.00
35226;BME280;21813;49.686;21.766;2023-01-25T22:51:43;99232.66;;;-1.18;100.00
35226;BME280;21813;49.686;21.766;2023-01-25T22:54:09;99229.16;;;-1.14;100.00
35226;BME280;21813;49.686;21.766;2023-01-25T22:56:35;99224.06;;;-1.14;100.00
35226;BME280;21813;49.686;21.766;2023-01-25T22:59:07;99223.13;;;-1.10;100.00
35226;BME280;21813;49.686;21.766;2023-01-25T23:01:55;99211.22;;;-1.11;100.00
